Time,TemperatureF,DewpointF,PressureIn,WindDirection,WindDirectionDegrees,WindSpeedMPH,WindSpeedGustMPH,Humidity,HourlyPrecipIn,Conditions,Clouds,dailyrainin,SoftwareType,DateUTC
2013-06-25 00:00:00,61.3,58.0,30.18,NW,311,0.0,0.0,88,0.00,,,0.00,weatherlink.com 1.10,2013-06-25 04:00:00,
2013-06-25 00:15:00,62.2,59.0,30.18,NNW,328,2.0,4.0,88,0.00,,,0.00,weatherlink.com 1.10,2013-06-25 04:15:00,
2013-06-25 00:30:00,63.2,59.0,30.18,NW,324,2.0,4.0,86,0.00,,,0.00,weatherlink.com 1.10,2013-06-25 04:30:00,
2013-06-25 00:45:00,63.9,59.0,30.17,NW,320,0.0,4.0,84,0.00,,,0.00,weatherlink.com 1.10,2013-06-25 04:45:00,
2013-06-25 01:00:00,63.9,59.0,30.17,NW,319,1.0,3.0,84,0.00,,,0.00,weatherlink.com 1.10,2013-06-25 05:00:00,
2013-06-25 01:15:00,63.9,59.0,30.16,NW,324,1.0,3.0,84,0.00,,,0.00,weatherlink.com 1.10,2013-06-25 05:15:00,
2013-06-25 01:30:00,63.9,59.0,30.15,NNW,328,1.0,4.0,84,0.00,,,0.00,weatherlink.com 1.10,2013-06-25 05:30:00,
2013-06-25 01:45:00,63.9,59.0,30.15,NW,324,0.0,2.0,84,0.00,,,0.00,weatherlink.com 1.10,2013-06-25 05:45:00,
2013-06-25 02:00:00,62.6,58.0,30.14,NW,319,1.0,1.0,86,0.00,,,0.00,weatherlink.com 1.10,2013-06-25 06:00:00,
2013-06-25 02:15:00,61.8,58.0,30.14,NW,319,0.0,0.0,87,0.00,,,0.00,weatherlink.com 1.10,2013-06-25 06:15:00,
2013-06-25 02:30:00,61.4,58.0,30.14,NW,322,2.0,2.0,89,0.00,,,0.00,weatherlink.com 1.10,2013-06-25 06:30:00,
2013-06-25 02:45:00,61.5,58.0,30.14,NW,324,2.0,3.0,89,0.00,,,0.00,weatherlink.com 1.10,2013-06-25 06:45:00,
2013-06-25 03:00:00,62.0,59.0,30.13,NNW,333,1.0,2.0,88,0.00,,,0.00,weatherlink.com 1.10,2013-06-25 07:00:00,
2013-06-25 03:15:00,62.0,59.0,30.13,NNW,333,0.0,1.0,88,0.00,,,0.00,weatherlink.com 1.10,2013-06-25 07:15:00,
2013-06-25 03:30:00,61.5,58.0,30.13,NNW,333,0.0,0.0,89,0.00,,,0.00,weatherlink.com 1.10,2013-06-25 07:30:00,
2013-06-25 03:45:00,61.8,58.0,30.12,NNW,328,1.0,3.0,88,0.00,,,0.00,weatherlink.com 1.10,2013-06-25 07:45:00,
2013-06-25 04:00:00,62.5,59.0,30.12,NW,324,1.0,2.0,87,0.00,,,0.00,weatherlink.com 1.10,2013-06-25 08:00:00,
2013-06-25 04:15:00,62.9,58.0,30.12,NW,322,0.0,3.0,85,0.00,,,0.00,weatherlink.com 1.10,2013-06-25 08:15:00,
2013-06-25 04:30:00,62.8,59.0,30.12,NW,324,2.0,4.0,86,0.00,,,0.00,weatherlink.com 1.10,2013-06-25 08:30:00,
2013-06-25 04:45:00,62.6,59.0,30.12,NW,322,2.0,3.0,87,0.00,,,0.00,weatherlink.com 1.10,2013-06-25 08:45:00,
2013-06-25 05:00:00,62.2,58.0,30.12,NW,323,2.0,3.0,87,0.00,,,0.00,weatherlink.com 1.10,2013-06-25 09:00:00,
2013-06-25 05:15:00,62.0,59.0,30.12,NNW,328,1.0,2.0,88,0.00,,,0.00,weatherlink.com 1.10,2013-06-25 09:15:00,
2013-06-25 05:30:00,62.0,59.0,30.12,NNW,328,0.0,2.0,88,0.00,,,0.00,weatherlink.com 1.10,2013-06-25 09:30:00,
2013-06-25 05:45:00,61.7,59.0,30.12,NNW,329,0.0,1.0,90,0.00,,,0.00,weatherlink.com 1.10,2013-06-25 09:45:00,
2013-06-25 06:00:00,61.6,59.0,30.12,NNW,329,1.0,1.0,91,0.00,,,0.00,weatherlink.com 1.10,2013-06-25 10:00:00,
2013-06-25 06:15:00,61.7,59.0,30.13,NNW,329,0.0,0.0,92,0.00,,,0.00,weatherlink.com 1.10,2013-06-25 10:15:00,
2013-06-25 06:30:00,61.7,60.0,30.12,NNW,328,0.0,0.0,93,0.00,,,0.00,weatherlink.com 1.10,2013-06-25 10:30:00,
2013-06-25 06:45:00,62.0,60.0,30.12,NNW,328,0.0,0.0,93,0.00,,,0.00,weatherlink.com 1.10,2013-06-25 10:45:00,
2013-06-25 07:00:00,62.1,60.0,30.11,NNW,329,0.0,0.0,93,0.00,,,0.00,weatherlink.com 1.10,2013-06-25 11:00:00,
2013-06-25 07:15:00,62.8,61.0,30.12,NNW,328,0.0,0.0,94,0.00,,,0.00,weatherlink.com 1.10,2013-06-25 11:15:00,
2013-06-25 07:30:00,63.7,62.0,30.12,NNW,328,0.0,0.0,93,0.00,,,0.00,weatherlink.com 1.10,2013-06-25 11:30:00,
2013-06-25 07:45:00,65.7,62.0,30.12,NNW,328,0.0,0.0,88,0.00,,,0.00,weatherlink.com 1.10,2013-06-25 11:45:00,
2013-06-25 08:00:00,68.1,64.0,30.11,NNW,328,0.0,0.0,85,0.00,,,0.00,weatherlink.com 1.10,2013-06-25 12:00:00,
2013-06-25 08:15:00,70.4,65.0,30.11,North,351,0.0,0.0,83,0.00,,,0.00,weatherlink.com 1.10,2013-06-25 12:15:00,
2013-06-25 08:30:00,70.8,65.0,30.11,SSE,159,0.0,2.0,82,0.00,,,0.00,weatherlink.com 1.10,2013-06-25 12:30:00,
2013-06-25 08:45:00,73.0,67.0,30.11,SE,146,0.0,1.0,81,0.00,,,0.00,weatherlink.com 1.10,2013-06-25 12:45:00,
2013-06-25 09:00:00,74.0,66.0,30.11,NW,321,2.0,3.0,75,0.00,,,0.00,weatherlink.com 1.10,2013-06-25 13:00:00,
2013-06-25 09:16:00,75.6,67.0,30.11,East,96,0.0,1.0,74,0.00,,,0.00,weatherlink.com 1.10,2013-06-25 13:16:00,
2013-06-25 09:31:00,76.5,68.0,30.10,ENE,67,1.0,3.0,76,0.00,,,0.00,weatherlink.com 1.10,2013-06-25 13:31:00,
2013-06-25 09:46:00,77.7,65.0,30.10,SSW,210,0.0,4.0,66,0.00,,,0.00,weatherlink.com 1.10,2013-06-25 13:46:00,
2013-06-25 10:01:00,79.3,67.0,30.10,NW,315,2.0,6.0,65,0.00,,,0.00,weatherlink.com 1.10,2013-06-25 14:01:00,
2013-06-25 10:16:00,79.7,67.0,30.10,SW,217,1.0,7.0,65,0.00,,,0.00,weatherlink.com 1.10,2013-06-25 14:16:00,
2013-06-25 10:31:00,80.0,67.0,30.10,SSW,200,2.0,5.0,64,0.00,,,0.00,weatherlink.com 1.10,2013-06-25 14:31:00,
2013-06-25 10:46:00,79.9,68.0,30.10,ENE,72,2.0,7.0,66,0.00,,,0.00,weatherlink.com 1.10,2013-06-25 14:46:00,
2013-06-25 11:01:00,80.3,67.0,30.10,SSW,208,7.0,11.0,65,0.00,,,0.00,weatherlink.com 1.10,2013-06-25 15:01:00,
2013-06-25 11:16:00,80.4,67.0,30.09,NNW,342,1.0,6.0,63,0.00,,,0.00,weatherlink.com 1.10,2013-06-25 15:16:00,
2013-06-25 11:32:00,81.0,67.0,30.09,NNW,346,1.0,9.0,62,0.00,,,0.00,weatherlink.com 1.10,2013-06-25 15:32:00,
2013-06-25 11:46:00,80.7,66.0,30.08,SSE,149,6.0,10.0,61,0.00,,,0.00,weatherlink.com 1.10,2013-06-25 15:46:00,
2013-06-25 12:01:00,82.3,68.0,30.08,South,172,5.0,8.0,63,0.00,,,0.00,weatherlink.com 1.10,2013-06-25 16:01:00,
2013-06-25 12:16:00,81.6,65.0,30.07,SSW,208,4.0,9.0,58,0.00,,,0.00,weatherlink.com 1.10,2013-06-25 16:16:00,
2013-06-25 12:31:00,82.5,67.0,30.06,West,267,0.0,7.0,59,0.00,,,0.00,weatherlink.com 1.10,2013-06-25 16:31:00,
2013-06-25 12:46:00,83.3,67.0,30.05,SW,226,1.0,8.0,59,0.00,,,0.00,weatherlink.com 1.10,2013-06-25 16:46:00,
2013-06-25 13:01:00,82.0,65.0,30.04,North,349,2.0,5.0,56,0.00,,,0.00,weatherlink.com 1.10,2013-06-25 17:01:00,
2013-06-25 13:16:00,82.5,65.0,30.03,NNW,333,5.0,7.0,56,0.00,,,0.00,weatherlink.com 1.10,2013-06-25 17:16:00,
2013-06-25 13:31:00,81.6,65.0,30.02,NNW,345,4.0,10.0,57,0.00,,,0.00,weatherlink.com 1.10,2013-06-25 17:31:00,
2013-06-25 13:46:00,82.4,66.0,30.02,South,181,3.0,9.0,58,0.00,,,0.00,weatherlink.com 1.10,2013-06-25 17:46:00,
2013-06-25 14:02:00,82.0,66.0,30.02,South,184,3.0,8.0,58,0.00,,,0.00,weatherlink.com 1.10,2013-06-25 18:02:00,
2013-06-25 14:16:00,81.0,68.0,30.02,ESE,109,2.0,6.0,65,0.00,,,0.00,weatherlink.com 1.10,2013-06-25 18:16:00,
2013-06-25 14:31:00,80.3,67.0,30.01,NNE,20,3.0,5.0,64,0.00,,,0.00,weatherlink.com 1.10,2013-06-25 18:31:00,
2013-06-25 14:46:00,80.3,66.0,30.00,South,179,6.0,8.0,62,0.00,,,0.00,weatherlink.com 1.10,2013-06-25 18:46:00,
2013-06-25 15:01:00,80.6,68.0,30.00,SSW,207,3.0,6.0,65,0.00,,,0.00,weatherlink.com 1.10,2013-06-25 19:01:00,
2013-06-25 15:16:00,80.7,70.0,29.99,SSW,210,3.0,11.0,70,0.00,,,0.00,weatherlink.com 1.10,2013-06-25 19:16:00,
2013-06-25 15:32:00,77.9,68.0,29.98,SSE,158,3.0,10.0,72,0.00,,,0.00,weatherlink.com 1.10,2013-06-25 19:32:00,
2013-06-25 15:47:00,76.9,66.0,29.99,ESE,122,4.0,11.0,70,0.00,,,0.00,weatherlink.com 1.10,2013-06-25 19:47:00,
2013-06-25 16:02:00,74.0,67.0,30.01,WNW,299,2.0,11.0,78,0.04,,,0.04,weatherlink.com 1.10,2013-06-25 20:02:00,
2013-06-25 16:17:00,70.4,68.0,30.00,SE,140,2.0,6.0,91,0.08,,,0.08,weatherlink.com 1.10,2013-06-25 20:17:00,
2013-06-25 16:32:00,72.5,68.0,29.98,ESE,114,0.0,8.0,86,0.08,,,0.08,weatherlink.com 1.10,2013-06-25 20:32:00,
2013-06-25 16:47:00,74.2,68.0,29.98,ESE,119,3.0,9.0,80,0.08,,,0.08,weatherlink.com 1.10,2013-06-25 20:47:00,
2013-06-25 17:02:00,74.9,68.0,29.97,SSW,204,5.0,12.0,80,0.03,,,0.08,weatherlink.com 1.10,2013-06-25 21:02:00,
2013-06-25 17:17:00,73.7,67.0,29.96,SE,129,5.0,7.0,80,0.00,,,0.08,weatherlink.com 1.10,2013-06-25 21:17:00,
2013-06-25 17:32:00,73.6,69.0,29.95,SSE,163,2.0,6.0,84,0.00,,,0.08,weatherlink.com 1.10,2013-06-25 21:32:00,
2013-06-25 17:47:00,73.7,68.0,29.95,SSE,167,2.0,6.0,82,0.00,,,0.08,weatherlink.com 1.10,2013-06-25 21:47:00,
2013-06-25 18:02:00,73.5,68.0,29.95,SW,225,3.0,7.0,83,0.00,,,0.08,weatherlink.com 1.10,2013-06-25 22:02:00,
2013-06-25 18:17:00,72.7,68.0,29.95,South,183,3.0,8.0,84,0.00,,,0.08,weatherlink.com 1.10,2013-06-25 22:17:00,
2013-06-25 18:32:00,73.0,68.0,29.96,SSE,153,1.0,9.0,84,0.00,,,0.08,weatherlink.com 1.10,2013-06-25 22:32:00,
2013-06-25 18:47:00,72.9,68.0,29.96,SSW,205,3.0,6.0,85,0.00,,,0.08,weatherlink.com 1.10,2013-06-25 22:47:00,
2013-06-25 19:02:00,72.7,68.0,29.96,SSE,166,2.0,5.0,86,0.00,,,0.08,weatherlink.com 1.10,2013-06-25 23:02:00,
2013-06-25 19:17:00,72.2,69.0,29.96,West,260,0.0,2.0,89,0.00,,,0.08,weatherlink.com 1.10,2013-06-25 23:17:00,
2013-06-25 19:32:00,71.3,68.0,29.97,SSE,160,2.0,4.0,89,0.00,,,0.08,weatherlink.com 1.10,2013-06-25 23:32:00,
2013-06-25 19:47:00,71.3,69.0,29.97,ESE,122,0.0,1.0,91,0.00,,,0.08,weatherlink.com 1.10,2013-06-25 23:47:00,
2013-06-25 20:02:00,70.4,68.0,29.98,NW,326,0.0,2.0,92,0.00,,,0.08,weatherlink.com 1.10,2013-06-26 00:02:00,
2013-06-25 20:17:00,69.9,68.0,29.99,NW,315,0.0,2.0,93,0.00,,,0.08,weatherlink.com 1.10,2013-06-26 00:17:00,
2013-06-25 20:32:00,69.4,67.0,29.99,SSW,200,0.0,2.0,93,0.00,,,0.08,weatherlink.com 1.10,2013-06-26 00:32:00,
2013-06-25 20:47:00,68.3,67.0,29.98,WNW,285,1.0,2.0,94,0.00,,,0.08,weatherlink.com 1.10,2013-06-26 00:47:00,
2013-06-25 21:02:00,67.4,66.0,29.99,WNW,285,1.0,1.0,95,0.00,,,0.08,weatherlink.com 1.10,2013-06-26 01:02:00,
2013-06-25 21:17:00,66.7,65.0,29.99,NW,319,0.0,2.0,95,0.00,,,0.08,weatherlink.com 1.10,2013-06-26 01:17:00,
2013-06-25 21:32:00,65.9,65.0,29.99,NW,320,1.0,2.0,95,0.00,,,0.08,weatherlink.com 1.10,2013-06-26 01:32:00,
2013-06-25 21:47:00,65.2,64.0,30.00,NW,325,1.0,2.0,96,0.00,,,0.08,weatherlink.com 1.10,2013-06-26 01:47:00,
2013-06-25 22:02:00,65.3,64.0,30.00,NNW,330,2.0,2.0,96,0.00,,,0.08,weatherlink.com 1.10,2013-06-26 02:02:00,
2013-06-25 22:17:00,65.3,64.0,30.00,NW,326,2.0,3.0,96,0.00,,,0.08,weatherlink.com 1.10,2013-06-26 02:17:00,
2013-06-25 22:32:00,65.3,64.0,30.00,NNW,330,1.0,3.0,96,0.00,,,0.08,weatherlink.com 1.10,2013-06-26 02:32:00,
2013-06-25 22:47:00,65.4,64.0,30.00,NW,317,3.0,3.0,96,0.00,,,0.08,weatherlink.com 1.10,2013-06-26 02:47:00,
2013-06-25 23:02:00,65.6,64.0,29.99,NW,324,2.0,3.0,95,0.00,,,0.08,weatherlink.com 1.10,2013-06-26 03:02:00,
2013-06-25 23:17:00,65.7,64.0,29.99,NW,310,1.0,3.0,95,0.00,,,0.08,weatherlink.com 1.10,2013-06-26 03:17:00,
2013-06-25 23:32:00,65.7,64.0,30.00,NW,325,2.0,3.0,95,0.00,,,0.08,weatherlink.com 1.10,2013-06-26 03:32:00,
2013-06-25 23:47:00,65.8,64.0,30.00,NW,322,2.0,2.0,95,0.00,,,0.08,weatherlink.com 1.10,2013-06-26 03:47:00,